Dinant, Belgium
Current Conditions -  °F | °C
As of 4:55 PM on Thursday 27 Nov 2014 (Local Time) from EBFS Reporting Station
Haze Haze  
Wind Chill:   Ceiling: 400
Heat Index:   Visibility: 1.8mi
Dew Point:   Wind: 7mph
Humidity: 100%   Direction: 140°SE
Pressure: 29.65"   Gusts: NA
Location:  50.26°N, 4.91°E
Report Text: EBFS 271555Z 14006KT 3000 BR SCT002 BKN004 BKN007 08/08 Q1004 AMB YLO TEMPO AMB
Loading
Personal Weather Stations






























Interactive Weather Map New forecast layout! Learn more

10-Day Weather Forecast

Advertisements
Track Severe Weather on mobile